createdAt,value
2023-03-22T00:00:28.206Z,5.10
2023-03-22T00:02:58.631Z,3.90
2023-03-22T00:05:26.055Z,3.60
2023-03-22T00:07:58.340Z,4.20
2023-03-22T00:10:27.902Z,3.90
2023-03-22T00:12:56.221Z,4.70
2023-03-22T00:15:23.750Z,4.80
2023-03-22T00:17:54.758Z,4.60
2023-03-22T00:20:23.784Z,4.40
2023-03-22T00:22:50.738Z,4.60
2023-03-22T00:25:18.700Z,4.80
2023-03-22T00:27:45.707Z,4.80
2023-03-22T00:30:13.258Z,4.90
2023-03-22T00:32:42.462Z,4.90
2023-03-22T00:35:11.482Z,4.10
2023-03-22T00:37:39.443Z,5.10
2023-03-22T00:40:11.733Z,3.80
2023-03-22T00:42:40.540Z,3.40
2023-03-22T00:45:11.076Z,4.10
2023-03-22T00:50:19.631Z,4.20
2023-03-22T00:52:49.278Z,4.80
2023-03-22T00:55:16.273Z,4.30
2023-03-22T00:57:46.842Z,4.50
2023-03-22T01:00:14.262Z,4.60
2023-03-22T01:02:42.152Z,4.90
2023-03-22T01:05:16.315Z,4.20
2023-03-22T01:07:43.834Z,4.50
2023-03-22T01:10:12.576Z,4.50
2023-03-22T01:12:39.644Z,4.40
2023-03-22T01:15:07.722Z,4.30
2023-03-22T01:17:35.509Z,4.90
2023-03-22T01:20:03.199Z,4.20
2023-03-22T01:22:31.482Z,2.90
2023-03-22T01:24:58.942Z,3.80
2023-03-22T01:27:26.298Z,3.90
2023-03-22T01:29:53.429Z,4.20
2023-03-22T01:32:20.946Z,4.20
2023-03-22T01:34:50.889Z,4.50
2023-03-22T01:37:18.573Z,4.50
2023-03-22T01:39:46.685Z,4.70
2023-03-22T01:42:17.327Z,4.00
2023-03-22T01:44:45.358Z,4.30
2023-03-22T01:47:15.777Z,4.60
2023-03-22T01:49:44.093Z,4.30
2023-03-22T01:52:15.256Z,4.40
2023-03-22T01:54:54.131Z,3.90
2023-03-22T01:57:38.141Z,4.00
2023-03-22T02:00:15.545Z,4.70
2023-03-22T02:03:02.994Z,3.30
2023-03-22T02:05:37.198Z,3.10
2023-03-22T02:08:05.068Z,3.70
2023-03-22T02:10:47.673Z,3.70
2023-03-22T02:13:40.022Z,3.80
2023-03-22T02:16:41.298Z,4.20
2023-03-22T02:19:29.539Z,4.30
2023-03-22T02:22:07.000Z,4.00
2023-03-22T02:25:15.646Z,4.40
2023-03-22T02:27:51.793Z,3.90
2023-03-22T02:30:38.475Z,4.40
2023-03-22T02:33:21.116Z,4.10
2023-03-22T02:36:03.300Z,4.10
2023-03-22T02:38:54.826Z,4.30
2023-03-22T02:41:43.994Z,3.10
2023-03-22T02:44:20.981Z,2.70
2023-03-22T02:47:20.753Z,3.70
2023-03-22T02:50:14.572Z,3.40
2023-03-22T02:53:10.176Z,3.70
2023-03-22T02:55:55.946Z,6.00
2023-03-22T02:58:35.197Z,3.70
2023-03-22T03:01:11.440Z,4.10
2023-03-22T03:03:39.885Z,4.20
2023-03-22T03:06:16.777Z,3.60
2023-03-22T03:08:45.183Z,3.80
2023-03-22T03:11:12.605Z,3.40
2023-03-22T03:13:39.623Z,3.80
2023-03-22T03:16:08.080Z,3.70
2023-03-22T03:18:51.774Z,3.20
2023-03-22T03:21:38.076Z,3.20
2023-03-22T03:24:23.407Z,3.50
2023-03-22T03:27:13.578Z,3.80
2023-03-22T03:29:59.878Z,3.90
2023-03-22T03:32:37.817Z,3.70
2023-03-22T03:35:38.457Z,4.10
2023-03-22T03:38:15.517Z,3.50
2023-03-22T03:40:47.666Z,3.50
2023-03-22T03:43:16.191Z,3.60
2023-03-22T03:45:43.704Z,3.80
2023-03-22T03:48:23.725Z,3.90
2023-03-22T03:50:53.223Z,3.70
2023-03-22T03:53:20.863Z,3.60
2023-03-22T03:55:48.694Z,3.20
2023-03-22T03:58:19.019Z,3.10
2023-03-22T04:00:47.789Z,2.80
2023-03-22T04:03:15.889Z,3.40
2023-03-22T04:06:02.421Z,3.50
2023-03-22T04:08:30.142Z,3.80
2023-03-22T04:10:57.525Z,3.80
2023-03-22T04:13:25.300Z,4.00
2023-03-22T04:15:57.887Z,3.60
2023-03-22T04:18:25.710Z,3.80
2023-03-22T04:20:53.920Z,3.40
2023-03-22T04:23:23.254Z,3.90
2023-03-22T04:25:51.271Z,3.50
2023-03-22T04:28:27.000Z,4.00
2023-03-22T04:30:54.583Z,3.40
2023-03-22T04:33:55.190Z,3.60
2023-03-22T04:36:36.617Z,3.70
2023-03-22T04:39:13.395Z,3.50
2023-03-22T04:41:42.960Z,2.70
2023-03-22T04:44:10.785Z,3.30
2023-03-22T04:46:41.045Z,3.70
2023-03-22T04:49:08.207Z,3.30
2023-03-22T04:51:38.094Z,3.60
2023-03-22T04:54:28.291Z,3.10
2023-03-22T04:56:55.704Z,3.40
2023-03-22T04:59:23.526Z,3.80
2023-03-22T05:01:51.800Z,3.60
2023-03-22T05:04:22.870Z,3.90
2023-03-22T05:06:53.955Z,3.50
2023-03-22T05:09:26.392Z,3.70
2023-03-22T05:11:54.342Z,3.40
2023-03-22T05:14:28.820Z,2.80
2023-03-22T05:16:56.013Z,2.50
2023-03-22T05:19:24.704Z,2.40
2023-03-22T05:21:58.409Z,3.30
2023-03-22T05:24:37.756Z,3.50
2023-03-22T05:27:05.956Z,3.30
2023-03-22T05:29:37.207Z,3.50
2023-03-22T05:32:14.426Z,3.40
2023-03-22T05:34:43.393Z,3.30
2023-03-22T05:37:33.354Z,3.30
2023-03-22T05:40:01.082Z,3.50
2023-03-22T05:42:35.181Z,3.60
2023-03-22T05:45:03.976Z,3.60
2023-03-22T05:47:31.637Z,1.60
2023-03-22T05:50:11.312Z,3.10
2023-03-22T05:52:38.966Z,2.70
2023-03-22T05:55:25.130Z,2.70
2023-03-22T05:57:59.853Z,3.10
2023-03-22T06:00:28.854Z,3.20
2023-03-22T06:03:17.080Z,3.40
2023-03-22T06:05:50.936Z,3.20
2023-03-22T06:08:18.594Z,3.10
2023-03-22T06:10:48.491Z,3.40
2023-03-22T06:13:16.189Z,3.70
2023-03-22T06:15:43.192Z,3.30
2023-03-22T06:18:16.294Z,3.60
2023-03-22T06:20:45.597Z,3.30
2023-03-22T06:23:19.414Z,3.10
2023-03-22T06:25:47.262Z,3.10
2023-03-22T06:28:15.294Z,2.60
2023-03-22T06:30:49.284Z,2.50
2023-03-22T06:33:19.561Z,3.00
2023-03-22T06:35:50.954Z,3.70
2023-03-22T06:38:26.917Z,3.40
2023-03-22T06:40:54.667Z,3.40
2023-03-22T06:43:21.871Z,4.30
2023-03-22T06:45:50.172Z,3.80
2023-03-22T06:48:22.059Z,3.50
2023-03-22T06:51:11.450Z,3.50
2023-03-22T06:53:39.429Z,3.60
2023-03-22T06:56:08.194Z,3.30
2023-03-22T06:58:45.481Z,3.50
2023-03-22T07:01:12.635Z,3.50
2023-03-22T07:03:39.850Z,3.60
2023-03-22T07:06:12.914Z,3.80
2023-03-22T07:08:42.520Z,3.60
2023-03-22T07:11:11.028Z,3.40
2023-03-22T07:13:38.928Z,3.30
2023-03-22T07:16:11.168Z,3.40
2023-03-22T07:18:41.169Z,3.40
2023-03-22T07:21:09.343Z,3.70
2023-03-22T07:23:37.583Z,3.60
2023-03-22T07:26:08.891Z,2.80
2023-03-22T07:28:39.415Z,3.50
2023-03-22T07:31:11.686Z,3.40
2023-03-22T07:34:02.272Z,3.50
2023-03-22T07:36:31.617Z,3.40
2023-03-22T07:38:58.680Z,3.80
2023-03-22T07:41:30.723Z,3.20
2023-03-22T07:44:18.280Z,3.40
2023-03-22T07:47:20.359Z,3.30
2023-03-22T07:50:12.575Z,3.50
2023-03-22T07:52:41.112Z,3.10
2023-03-22T07:55:10.398Z,3.40
2023-03-22T07:57:38.069Z,3.40
2023-03-22T08:00:07.562Z,3.60
2023-03-22T08:02:46.140Z,3.40
2023-03-22T08:05:51.858Z,3.00
2023-03-22T08:08:19.878Z,3.10
2023-03-22T08:10:51.725Z,3.10
2023-03-22T08:13:19.646Z,2.70
2023-03-22T08:15:46.562Z,3.50
2023-03-22T08:18:13.811Z,3.00
2023-03-22T08:20:41.763Z,2.80
2023-03-22T08:23:17.098Z,3.20
2023-03-22T08:26:03.306Z,2.90
2023-03-22T08:28:32.316Z,2.90
2023-03-22T08:30:59.683Z,2.80
2023-03-22T08:33:28.252Z,2.70
2023-03-22T08:36:07.178Z,2.80
2023-03-22T08:38:36.306Z,2.80
2023-03-22T08:41:06.359Z,2.40
2023-03-22T08:43:33.268Z,2.90
2023-03-22T08:46:00.569Z,2.50
2023-03-22T08:48:30.131Z,2.40
2023-03-22T08:51:09.588Z,3.20
2023-03-22T08:53:48.489Z,2.70
2023-03-22T08:56:38.219Z,3.00
2023-03-22T08:59:28.127Z,2.70
2023-03-22T09:02:07.058Z,2.90
2023-03-22T09:04:34.252Z,3.20
2023-03-22T09:07:02.135Z,3.00
2023-03-22T09:09:30.602Z,2.70
2023-03-22T09:11:58.347Z,3.30
2023-03-22T09:14:25.338Z,2.90
2023-03-22T09:16:53.123Z,3.00
2023-03-22T09:19:20.402Z,2.80
2023-03-22T09:21:48.130Z,2.90
2023-03-22T09:24:19.057Z,3.20
2023-03-22T09:26:50.622Z,2.70
2023-03-22T09:29:19.814Z,2.70
2023-03-22T09:31:49.097Z,2.80
2023-03-22T09:34:27.259Z,2.60
2023-03-22T09:36:57.342Z,3.30
2023-03-22T09:39:26.364Z,2.60
2023-03-22T09:42:07.510Z,3.10
2023-03-22T09:44:41.095Z,2.90
2023-03-22T09:47:18.056Z,3.00
2023-03-22T09:49:53.990Z,2.60
2023-03-22T09:52:21.911Z,3.30
2023-03-22T09:54:50.405Z,3.00
2023-03-22T09:57:32.659Z,2.40
2023-03-22T10:00:05.046Z,2.90
2023-03-22T10:02:59.801Z,2.80
2023-03-22T10:05:49.827Z,2.70
2023-03-22T10:08:35.540Z,2.90
2023-03-22T10:11:02.955Z,3.00
2023-03-22T10:14:14.756Z,2.90
2023-03-22T10:16:43.860Z,2.60
2023-03-22T10:19:23.963Z,3.20
2023-03-22T10:21:53.012Z,2.70
2023-03-22T10:24:25.920Z,3.60
2023-03-22T10:26:53.886Z,2.70
2023-03-22T10:29:30.104Z,2.50
2023-03-22T10:32:10.081Z,2.40
2023-03-22T10:34:37.283Z,2.40
2023-03-22T10:37:06.789Z,3.20
2023-03-22T10:39:40.922Z,2.80
2023-03-22T10:42:13.730Z,2.60
2023-03-22T10:45:00.549Z,2.70
2023-03-22T10:47:36.269Z,2.80
2023-03-22T10:50:07.363Z,2.50
2023-03-22T10:52:40.772Z,2.60
2023-03-22T10:55:13.638Z,2.50
2023-03-22T10:57:43.279Z,2.00
2023-03-22T11:00:12.937Z,2.40
2023-03-22T11:03:07.272Z,2.70
2023-03-22T11:05:34.456Z,2.50
2023-03-22T11:08:03.731Z,2.80
2023-03-22T11:10:33.816Z,2.70
2023-03-22T11:13:09.878Z,2.90
2023-03-22T11:15:49.467Z,2.70
2023-03-22T11:18:17.873Z,2.20
2023-03-22T11:20:58.309Z,2.80
2023-03-22T11:23:26.848Z,2.40
2023-03-22T11:25:59.897Z,2.50
2023-03-22T11:28:37.644Z,3.00
2023-03-22T11:31:13.532Z,3.00
2023-03-22T11:34:00.997Z,2.60
2023-03-22T11:36:29.950Z,2.50
2023-03-22T11:39:02.336Z,2.90
2023-03-22T11:41:38.849Z,2.60
2023-03-22T11:44:12.558Z,2.50
2023-03-22T11:46:40.436Z,2.80
2023-03-22T11:49:14.622Z,2.80
2023-03-22T11:51:43.021Z,2.50
2023-03-22T11:54:35.977Z,2.70
2023-03-22T11:57:15.728Z,3.10
2023-03-22T12:00:12.110Z,3.00
2023-03-22T12:02:55.555Z,3.00
2023-03-22T12:05:39.745Z,3.60
2023-03-22T12:08:13.980Z,3.90
2023-03-22T12:10:43.985Z,3.40
2023-03-22T12:13:27.167Z,3.70
2023-03-22T12:15:58.650Z,4.00
2023-03-22T12:18:31.746Z,3.70
2023-03-22T12:21:01.221Z,3.40
2023-03-22T12:23:35.491Z,4.00
2023-03-22T12:26:16.585Z,4.00
2023-03-22T12:28:56.573Z,3.80
2023-03-22T12:31:31.943Z,3.90
2023-03-22T12:34:05.004Z,3.70
2023-03-22T12:36:41.944Z,3.90
2023-03-22T12:39:18.777Z,3.30
2023-03-22T12:41:49.722Z,3.90
2023-03-22T12:44:30.476Z,3.80
2023-03-22T12:47:04.380Z,4.00
2023-03-22T12:49:41.450Z,3.70
2023-03-22T12:52:19.387Z,3.40
2023-03-22T12:54:49.566Z,3.80
2023-03-22T12:57:17.239Z,3.40
2023-03-22T12:59:49.611Z,6.40
2023-03-22T13:02:20.420Z,3.30
2023-03-22T13:04:59.273Z,3.00
2023-03-22T13:07:31.886Z,3.10
2023-03-22T13:10:01.629Z,3.20
2023-03-22T13:12:33.953Z,3.30
2023-03-22T13:15:41.154Z,3.20
2023-03-22T13:18:38.526Z,2.80
2023-03-22T13:21:15.554Z,3.20
2023-03-22T13:23:57.260Z,2.90
2023-03-22T13:26:33.888Z,3.20
2023-03-22T13:29:07.843Z,2.90
2023-03-22T13:31:59.537Z,3.00
2023-03-22T13:34:45.829Z,3.00
2023-03-22T13:37:32.264Z,3.10
2023-03-22T13:40:02.298Z,2.90
2023-03-22T13:42:40.851Z,2.70
2023-03-22T13:45:27.796Z,2.70
2023-03-22T13:48:12.834Z,2.90
2023-03-22T13:50:40.552Z,2.90
2023-03-22T13:53:23.817Z,2.90
2023-03-22T13:55:51.947Z,3.00
2023-03-22T13:58:38.709Z,2.60
2023-03-22T14:01:16.516Z,2.60
2023-03-22T14:03:47.660Z,2.70
2023-03-22T14:06:25.649Z,2.40
2023-03-22T14:08:59.816Z,2.50
2023-03-22T14:11:55.897Z,2.70
2023-03-22T14:14:32.566Z,2.60
2023-03-22T14:17:05.903Z,2.50
2023-03-22T14:19:34.953Z,2.60
